Oski — WYD3004 — position and weather

sailwx.info

Track history (hours):
 
Tides and Currents Weather Stations Pressure Air Temp Water Temp Dewpoint Dewpoint Depression Visibility Wind Speed Wind Dir Waves Ship Positions

Oski

Owner: BLUE & GOLD FLEET, SAN FRANCISCO, CA. More information available from US FCC via Universal Licensing System and Coast Guard Vessel Documentation Center.

Last reported at 2017-Feb-24 03:33 UTC. Time now 2017-Feb-24 21:50 UTC.
Position N 37°49' W 122°25'.

Length 24 m; draft 2 m.

Type: Passenger vessel. MMSI: 366985320.

Date/timePositionNaut miles runAvg speedWind from/ knotsBaromVisibWave heightAir tempDewpointWater temp
2017-Feb-24 03:33N 37°49' W 122°25'6 5.7
2017-Feb-24 02:33N 37°47' W 122°18'4 3.8
2017-Feb-24 01:33N 37°48' W 122°22'1 0.8
2017-Feb-24 00:34N 37°48' W 122°22'2 0.1
2017-Feb-22 03:34N 37°49' W 122°25'6 5.6
2017-Feb-22 02:34N 37°47' W 122°18'2 2.1
2017-Feb-22 01:34N 37°48' W 122°20'1 1.0
2017-Feb-22 00:34N 37°48' W 122°21'3 2.6
2017-Feb-21 23:33N 37°49' W 122°25'0 0.0
2017-Feb-21 22:34N 37°49' W 122°25'  
2017-Feb-19 01:27N 37°49' W 122°25'0 0.1
2017-Feb-19 00:33N 37°49' W 122°25'2 2.3
2017-Feb-18 23:33N 37°49' W 122°28'2 2.4
2017-Feb-18 22:33N 37°49' W 122°25'0 0.0
2017-Feb-18 07:33N 37°49' W 122°25'2 1.7
2017-Feb-18 06:33N 37°50' W 122°26'2 1.7
2017-Feb-18 05:33N 37°49' W 122°25'3 2.7
2017-Feb-18 04:33N 37°51' W 122°27'3 2.7
2017-Feb-18 03:33N 37°49' W 122°25'5 5.4
2017-Feb-18 02:33N 37°47' W 122°18'1 0.7
2017-Feb-18 01:33N 37°48' W 122°19'4 3.6
2017-Feb-18 00:33N 37°48' W 122°23'1 0.1
2017-Feb-17 01:20N 37°49' W 122°25'0 0.0
2017-Feb-17 00:33N 37°49' W 122°25'0 0.0
2017-Feb-16 23:34N 37°49' W 122°25'0 0.0
2017-Feb-16 22:33N 37°49' W 122°25'0 0.0
2017-Feb-16 21:34N 37°49' W 122°25'0 0.0
2017-Feb-16 20:34N 37°49' W 122°25'0 0.0
2017-Feb-16 19:33N 37°49' W 122°25'0 0.0
2017-Feb-16 18:33N 37°49' W 122°25'4 4.3
2017-Feb-16 17:33N 37°48' W 122°19'3 2.8
2017-Feb-16 16:33N 37°48' W 122°23'5 4.7
2017-Feb-16 15:33N 37°48' W 122°17'5 4.9
2017-Feb-16 14:33N 37°49' W 122°23'1 0.1
2017-Feb-16 03:18N 37°49' W 122°25'0 0.2
2017-Feb-16 02:34N 37°49' W 122°25'4 4.2
2017-Feb-16 01:34N 37°52' W 122°27'2 1.8
2017-Feb-16 00:34N 37°51' W 122°27'2 1.8
2017-Feb-15 23:34N 37°52' W 122°27'4 0.2
2017-Feb-15 04:11N 37°49' W 122°25'1 2.1
2017-Feb-15 03:33N 37°50' W 122°25'2 2.4
2017-Feb-15 02:33N 37°48' W 122°24'1 1.1
2017-Feb-15 01:28N 37°49' W 122°25'0 0.1
2017-Feb-15 00:34N 37°49' W 122°25'2 2.4
2017-Feb-14 23:33N 37°49' W 122°28'  
Track history (hours):
 
Tides and Currents Weather Stations Pressure Air Temp Water Temp Dewpoint Dewpoint Depression Visibility Wind Speed Wind Dir Waves Ship Positions

Oski

Owner: BLUE & GOLD FLEET, SAN FRANCISCO, CA. More information available from US FCC via Universal Licensing System and Coast Guard Vessel Documentation Center.

Last reported at 2017-Feb-24 03:33 UTC. Time now 2017-Feb-24 21:50 UTC.
Position N 37°49' W 122°25'.

Length 24 m; draft 2 m.

Type: Passenger vessel. MMSI: 366985320.

Date/timePositionNaut miles runAvg speedWind from/ knotsBaromVisibWave heightAir tempDewpointWater temp
2017-Feb-24 03:33N 37°49' W 122°25'6 5.7
2017-Feb-24 02:33N 37°47' W 122°18'4 3.8
2017-Feb-24 01:33N 37°48' W 122°22'1 0.8
2017-Feb-24 00:34N 37°48' W 122°22'2 0.1
2017-Feb-22 03:34N 37°49' W 122°25'6 5.6
2017-Feb-22 02:34N 37°47' W 122°18'2 2.1
2017-Feb-22 01:34N 37°48' W 122°20'1 1.0
2017-Feb-22 00:34N 37°48' W 122°21'3 2.6
2017-Feb-21 23:33N 37°49' W 122°25'0 0.0
2017-Feb-21 22:34N 37°49' W 122°25'  
2017-Feb-19 01:27N 37°49' W 122°25'0 0.1
2017-Feb-19 00:33N 37°49' W 122°25'2 2.3
2017-Feb-18 23:33N 37°49' W 122°28'2 2.4
2017-Feb-18 22:33N 37°49' W 122°25'0 0.0
2017-Feb-18 07:33N 37°49' W 122°25'2 1.7
2017-Feb-18 06:33N 37°50' W 122°26'2 1.7
2017-Feb-18 05:33N 37°49' W 122°25'3 2.7
2017-Feb-18 04:33N 37°51' W 122°27'3 2.7
2017-Feb-18 03:33N 37°49' W 122°25'5 5.4
2017-Feb-18 02:33N 37°47' W 122°18'1 0.7
2017-Feb-18 01:33N 37°48' W 122°19'4 3.6
2017-Feb-18 00:33N 37°48' W 122°23'1 0.1
2017-Feb-17 01:20N 37°49' W 122°25'0 0.0
2017-Feb-17 00:33N 37°49' W 122°25'0 0.0
2017-Feb-16 23:34N 37°49' W 122°25'0 0.0
2017-Feb-16 22:33N 37°49' W 122°25'0 0.0
2017-Feb-16 21:34N 37°49' W 122°25'0 0.0
2017-Feb-16 20:34N 37°49' W 122°25'0 0.0
2017-Feb-16 19:33N 37°49' W 122°25'0 0.0
2017-Feb-16 18:33N 37°49' W 122°25'4 4.3
2017-Feb-16 17:33N 37°48' W 122°19'3 2.8
2017-Feb-16 16:33N 37°48' W 122°23'5 4.7
2017-Feb-16 15:33N 37°48' W 122°17'5 4.9
2017-Feb-16 14:33N 37°49' W 122°23'1 0.1
2017-Feb-16 03:18N 37°49' W 122°25'0 0.2
2017-Feb-16 02:34N 37°49' W 122°25'4 4.2
2017-Feb-16 01:34N 37°52' W 122°27'2 1.8
2017-Feb-16 00:34N 37°51' W 122°27'2 1.8
2017-Feb-15 23:34N 37°52' W 122°27'4 0.2
2017-Feb-15 04:11N 37°49' W 122°25'1 2.1
2017-Feb-15 03:33N 37°50' W 122°25'2 2.4
2017-Feb-15 02:33N 37°48' W 122°24'1 1.1
2017-Feb-15 01:28N 37°49' W 122°25'0 0.1
2017-Feb-15 00:34N 37°49' W 122°25'2 2.4
2017-Feb-14 23:33N 37°49' W 122°28'  

Dump ship's entire track history